createdAt,value
2023-01-10T00:04:48.588Z,22.36
2023-01-10T00:09:51.385Z,22.32
2023-01-10T00:14:55.557Z,22.32
2023-01-10T00:19:58.335Z,22.30
2023-01-10T00:25:01.203Z,22.22
2023-01-10T00:30:13.794Z,22.22
2023-01-10T00:35:16.677Z,22.27
2023-01-10T00:40:19.682Z,22.27
2023-01-10T00:45:25.043Z,22.24
2023-01-10T00:50:27.891Z,22.27
2023-01-10T00:55:30.794Z,22.33
2023-01-10T01:00:35.043Z,22.27
2023-01-10T01:05:41.610Z,22.30
2023-01-10T01:10:44.663Z,22.30
2023-01-10T01:15:48.972Z,22.29
2023-01-10T01:20:53.892Z,22.28
2023-01-10T01:25:57.163Z,22.26
2023-01-10T01:31:01.641Z,22.25
2023-01-10T01:36:05.944Z,22.21
2023-01-10T01:41:29.323Z,22.16
2023-01-10T01:46:33.908Z,22.09
2023-01-10T01:51:36.985Z,22.01
2023-01-10T01:56:42.853Z,21.95
2023-01-10T02:01:50.300Z,21.90
2023-01-10T02:06:53.506Z,21.84
2023-01-10T02:11:56.528Z,21.77
2023-01-10T02:17:00.819Z,21.67
2023-01-10T02:22:51.125Z,21.60
2023-01-10T02:28:07.341Z,21.49
2023-01-10T02:33:15.361Z,21.40
2023-01-10T02:38:34.730Z,21.33
2023-01-10T02:43:40.309Z,21.24
2023-01-10T02:48:44.659Z,21.16
2023-01-10T02:53:48.691Z,21.09
2023-01-10T02:59:11.740Z,21.02
2023-01-10T03:04:20.465Z,20.96
2023-01-10T03:09:25.593Z,20.92
2023-01-10T03:14:42.206Z,20.88
2023-01-10T03:19:55.704Z,20.84
2023-01-10T03:24:59.823Z,20.80
2023-01-10T03:30:05.123Z,20.78
2023-01-10T03:35:10.766Z,20.75
2023-01-10T03:40:16.862Z,20.71
2023-01-10T03:45:19.884Z,20.68
2023-01-10T03:50:24.900Z,20.67
2023-01-10T03:55:29.058Z,20.64
2023-01-10T04:00:31.950Z,20.59
2023-01-10T04:05:36.274Z,20.54
2023-01-10T04:10:39.459Z,20.50
2023-01-10T04:15:42.391Z,20.48
2023-01-10T04:20:46.726Z,20.43
2023-01-10T04:25:49.484Z,20.39
2023-01-10T04:30:52.260Z,20.35
2023-01-10T04:35:56.726Z,20.31
2023-01-10T04:40:59.573Z,20.27
2023-01-10T04:46:02.394Z,20.25
2023-01-10T04:51:07.028Z,20.20
2023-01-10T04:56:10.660Z,20.14
2023-01-10T05:01:14.557Z,20.12
2023-01-10T05:06:18.808Z,20.10
2023-01-10T05:11:21.555Z,20.06
2023-01-10T05:16:25.423Z,20.02
2023-01-10T05:21:29.563Z,19.97
2023-01-10T05:26:32.403Z,19.96
2023-01-10T05:31:35.249Z,19.94
2023-01-10T05:36:39.419Z,19.92
2023-01-10T05:41:42.284Z,19.90
2023-01-10T05:46:45.101Z,19.87
2023-01-10T05:51:49.293Z,19.85
2023-01-10T05:56:52.037Z,19.83
2023-01-10T06:01:54.831Z,19.81
2023-01-10T06:06:59.011Z,19.79
2023-01-10T06:12:01.821Z,19.76
2023-01-10T06:17:08.509Z,19.73
2023-01-10T06:22:12.652Z,19.71
2023-01-10T06:27:15.405Z,19.69
2023-01-10T06:32:18.185Z,19.67
2023-01-10T06:37:22.444Z,19.66
2023-01-10T06:42:25.383Z,19.63
2023-01-10T06:47:28.153Z,19.63
2023-01-10T06:52:32.381Z,19.60
2023-01-10T06:57:35.454Z,19.59
2023-01-10T07:02:38.411Z,19.58
2023-01-10T07:07:42.545Z,19.57
2023-01-10T07:12:45.324Z,19.54
2023-01-10T07:17:48.081Z,19.54
2023-01-10T07:22:55.984Z,19.52
2023-01-10T07:27:58.850Z,19.49
2023-01-10T07:33:03.835Z,19.47
2023-01-10T07:38:09.097Z,19.44
2023-01-10T07:43:11.876Z,19.35
2023-01-10T07:48:14.659Z,19.39
2023-01-10T07:53:18.862Z,19.38
2023-01-10T07:58:21.629Z,19.37
2023-01-10T08:03:24.984Z,19.36
2023-01-10T08:08:29.275Z,19.34
2023-01-10T08:13:32.380Z,16.67
2023-01-10T08:18:35.206Z,15.01
2023-01-10T08:23:39.351Z,13.94
2023-01-10T08:28:42.134Z,14.10
2023-01-10T08:33:44.974Z,15.61
2023-01-10T08:38:50.949Z,16.60
2023-01-10T08:43:53.788Z,17.26
2023-01-10T08:48:56.549Z,17.73
2023-01-10T08:54:00.734Z,18.10
2023-01-10T08:59:03.526Z,18.38
2023-01-10T09:04:06.550Z,18.58
2023-01-10T09:09:10.758Z,18.73
2023-01-10T09:14:13.598Z,18.80
2023-01-10T09:19:16.567Z,18.89
2023-01-10T09:24:20.974Z,18.94
2023-01-10T09:29:23.675Z,18.95
2023-01-10T09:34:26.520Z,18.97
2023-01-10T09:39:32.268Z,18.99
2023-01-10T09:44:41.984Z,19.00
2023-01-10T09:49:48.080Z,19.02
2023-01-10T09:54:52.653Z,18.97
2023-01-10T09:59:55.513Z,18.99
2023-01-10T10:05:11.081Z,19.00
2023-01-10T10:10:17.620Z,19.04
2023-01-10T10:15:24.635Z,19.05
2023-01-10T10:20:32.703Z,19.00
2023-01-10T10:25:45.387Z,19.02
2023-01-10T10:30:51.494Z,19.04
2023-01-10T10:35:56.207Z,19.02
2023-01-10T10:41:01.014Z,19.03
2023-01-10T10:46:05.371Z,19.03
2023-01-10T10:51:09.864Z,19.05
2023-01-10T10:56:15.104Z,19.08
2023-01-10T11:01:18.134Z,19.06
2023-01-10T11:06:21.135Z,19.01
2023-01-10T11:11:26.845Z,19.00
2023-01-10T11:16:31.037Z,19.02
2023-01-10T11:21:33.922Z,19.05
2023-01-10T11:26:40.227Z,19.05
2023-01-10T11:31:43.017Z,19.06
2023-01-10T11:36:56.950Z,19.08
2023-01-10T11:42:07.893Z,19.11
2023-01-10T11:47:14.727Z,19.12
2023-01-10T11:52:22.135Z,19.13
2023-01-10T11:57:27.050Z,19.15
2023-01-10T12:02:31.478Z,19.16
2023-01-10T12:07:54.804Z,19.16
2023-01-10T12:12:59.993Z,19.17
2023-01-10T12:18:04.262Z,19.16
2023-01-10T12:23:09.154Z,19.16
2023-01-10T12:28:14.884Z,19.13
2023-01-10T12:33:18.781Z,19.08
2023-01-10T12:38:39.259Z,19.06
2023-01-10T12:44:06.339Z,19.05
2023-01-10T12:49:10.590Z,19.06
2023-01-10T12:54:15.591Z,19.10
2023-01-10T12:59:36.128Z,19.08
2023-01-10T13:04:39.696Z,19.11
2023-01-10T13:09:42.707Z,19.12
2023-01-10T13:14:47.791Z,19.13
2023-01-10T13:20:23.581Z,19.10
2023-01-10T13:25:27.231Z,19.15
2023-01-10T13:30:33.342Z,19.19
2023-01-10T13:35:40.693Z,19.22
2023-01-10T13:40:43.513Z,19.30
2023-01-10T13:45:47.691Z,19.36
2023-01-10T13:51:08.712Z,19.43
2023-01-10T13:56:36.170Z,19.49
2023-01-10T14:01:58.061Z,19.56
2023-01-10T14:07:02.056Z,19.66
2023-01-10T14:12:06.228Z,19.72
2023-01-10T14:17:15.439Z,19.78
2023-01-10T14:22:27.472Z,17.20
2023-01-10T14:27:35.682Z,17.74
2023-01-10T14:32:41.270Z,18.45
2023-01-10T14:37:45.214Z,18.91
2023-01-10T14:42:48.952Z,19.16
2023-01-10T14:47:53.973Z,19.35
2023-01-10T14:52:57.126Z,19.51
2023-01-10T14:58:00.784Z,19.59
2023-01-10T15:03:09.121Z,19.67
2023-01-10T15:08:16.881Z,19.73
2023-01-10T15:13:20.819Z,19.84
2023-01-10T15:18:30.816Z,19.88
2023-01-10T15:23:36.996Z,19.93
2023-01-10T15:28:39.861Z,20.04
2023-01-10T15:33:45.017Z,20.10
2023-01-10T15:38:48.017Z,20.15
2023-01-10T15:43:52.051Z,20.23
2023-01-10T15:48:57.653Z,20.30
2023-01-10T15:54:04.736Z,20.37
2023-01-10T15:59:21.424Z,20.40
2023-01-10T16:04:25.606Z,20.48
2023-01-10T16:09:28.385Z,20.53
2023-01-10T16:14:31.254Z,20.60
2023-01-10T16:19:35.522Z,20.57
2023-01-10T16:24:38.251Z,20.69
2023-01-10T16:29:41.002Z,20.75
2023-01-10T16:34:45.189Z,20.85
2023-01-10T16:39:48.009Z,20.86
2023-01-10T16:44:50.818Z,20.89
2023-01-10T16:49:54.946Z,20.94
2023-01-10T16:54:57.827Z,20.99
2023-01-10T17:00:00.629Z,21.03
2023-01-10T17:05:05.058Z,21.08
2023-01-10T17:10:08.387Z,21.14
2023-01-10T17:15:12.397Z,21.15
2023-01-10T17:20:16.686Z,21.17
2023-01-10T17:25:19.539Z,21.23
2023-01-10T17:30:22.470Z,21.27
2023-01-10T17:35:28.152Z,21.25
2023-01-10T17:40:31.044Z,21.24
2023-01-10T17:45:33.876Z,21.32
2023-01-10T17:50:38.106Z,21.30
2023-01-10T17:55:45.111Z,21.33
2023-01-10T18:00:48.687Z,21.35
2023-01-10T18:05:53.540Z,21.39
2023-01-10T18:10:59.748Z,21.41
2023-01-10T18:16:02.587Z,21.40
2023-01-10T18:21:13.218Z,21.37
2023-01-10T18:26:16.019Z,21.38
2023-01-10T18:31:19.636Z,21.39
2023-01-10T18:36:24.207Z,21.37
2023-01-10T18:41:27.099Z,21.40
2023-01-10T18:46:30.042Z,21.40
2023-01-10T18:51:34.285Z,21.36
2023-01-10T18:56:37.042Z,21.41
2023-01-10T19:01:39.847Z,21.41
2023-01-10T19:06:44.333Z,21.45
2023-01-10T19:11:47.148Z,21.47
2023-01-10T19:16:49.918Z,21.50
2023-01-10T19:21:54.065Z,21.48
2023-01-10T19:26:56.979Z,21.47
2023-01-10T19:32:00.536Z,21.46
2023-01-10T19:37:04.678Z,21.48
2023-01-10T19:42:07.444Z,21.34
2023-01-10T19:47:11.502Z,21.35
2023-01-10T19:52:15.599Z,21.43
2023-01-10T19:57:18.680Z,21.47
2023-01-10T20:02:21.762Z,21.49
2023-01-10T20:07:26.071Z,21.53
2023-01-10T20:12:28.988Z,21.50
2023-01-10T20:17:33.206Z,21.51
2023-01-10T20:22:37.351Z,21.49
2023-01-10T20:27:40.158Z,21.50
2023-01-10T20:32:42.933Z,21.51
2023-01-10T20:37:47.080Z,21.53
2023-01-10T20:42:50.870Z,21.54
2023-01-10T20:47:53.953Z,21.51
2023-01-10T20:52:58.098Z,21.53
2023-01-10T20:58:00.892Z,21.52
2023-01-10T21:03:03.852Z,21.54
2023-01-10T21:08:08.001Z,21.53
2023-01-10T21:13:10.842Z,21.52
2023-01-10T21:18:14.196Z,21.48
2023-01-10T21:23:20.336Z,21.49
2023-01-10T21:28:23.386Z,21.50
2023-01-10T21:33:26.334Z,21.51
2023-01-10T21:38:30.796Z,21.51
2023-01-10T21:43:33.625Z,21.51
2023-01-10T21:48:36.581Z,21.51
2023-01-10T21:53:42.997Z,21.50
2023-01-10T21:58:46.841Z,21.45
2023-01-10T22:03:50.206Z,21.48
2023-01-10T22:08:54.436Z,21.42
2023-01-10T22:13:57.944Z,21.39
2023-01-10T22:19:00.738Z,21.50
2023-01-10T22:24:05.514Z,21.45
2023-01-10T22:29:08.288Z,21.53
2023-01-10T22:34:11.133Z,21.53
2023-01-10T22:39:15.461Z,21.55
2023-01-10T22:44:19.246Z,21.52
2023-01-10T22:49:22.229Z,21.56
2023-01-10T22:54:26.357Z,21.56
2023-01-10T22:59:29.169Z,21.56
2023-01-10T23:04:31.941Z,21.53
2023-01-10T23:09:36.169Z,21.58
2023-01-10T23:14:38.990Z,21.59
2023-01-10T23:19:41.771Z,21.55
2023-01-10T23:24:45.888Z,21.53
2023-01-10T23:29:48.891Z,21.57
2023-01-10T23:34:51.727Z,21.56
2023-01-10T23:39:56.484Z,21.59
2023-01-10T23:44:59.344Z,21.55
2023-01-10T23:50:02.110Z,21.57
2023-01-10T23:55:07.377Z,21.60
